sensor_id;sensor_type;location;lat;lon;timestamp;temperature;humidity
39079;DHT22;24829;49.208;12.080;2022-12-18T00:01:29;-5.10;99.90
39079;DHT22;24829;49.208;12.080;2022-12-18T00:03:57;-5.20;99.90
39079;DHT22;24829;49.208;12.080;2022-12-18T00:06:24;-5.30;99.90
39079;DHT22;24829;49.208;12.080;2022-12-18T00:08:50;-5.50;99.90
39079;DHT22;24829;49.208;12.080;2022-12-18T00:11:21;-5.50;99.90
39079;DHT22;24829;49.208;12.080;2022-12-18T00:13:47;-5.50;99.90
39079;DHT22;24829;49.208;12.080;2022-12-18T00:16:16;-5.50;99.90
39079;DHT22;24829;49.208;12.080;2022-12-18T00:18:42;-5.60;99.90
39079;DHT22;24829;49.208;12.080;2022-12-18T00:21:10;-5.60;99.90
39079;DHT22;24829;49.208;12.080;2022-12-18T00:23:39;-5.50;99.90
39079;DHT22;24829;49.208;12.080;2022-12-18T00:26:19;-5.50;99.90
39079;DHT22;24829;49.208;12.080;2022-12-18T00:28:46;-5.40;99.90
39079;DHT22;24829;49.208;12.080;2022-12-18T00:31:19;-5.30;99.90
39079;DHT22;24829;49.208;12.080;2022-12-18T00:33:45;-5.20;99.90
39079;DHT22;24829;49.208;12.080;2022-12-18T00:36:14;-5.30;99.90
39079;DHT22;24829;49.208;12.080;2022-12-18T00:38:41;-5.30;99.90
39079;DHT22;24829;49.208;12.080;2022-12-18T00:41:08;-5.40;99.90
39079;DHT22;24829;49.208;12.080;2022-12-18T00:43:34;-5.40;99.90
39079;DHT22;24829;49.208;12.080;2022-12-18T00:45:59;-5.30;99.90
39079;DHT22;24829;49.208;12.080;2022-12-18T00:48:25;-5.30;99.90
39079;DHT22;24829;49.208;12.080;2022-12-18T00:50:50;-5.20;99.90
39079;DHT22;24829;49.208;12.080;2022-12-18T00:53:16;-5.20;99.90
39079;DHT22;24829;49.208;12.080;2022-12-18T00:55:42;-5.20;99.90
39079;DHT22;24829;49.208;12.080;2022-12-18T00:58:09;-5.10;99.90
39079;DHT22;24829;49.208;12.080;2022-12-18T01:00:35;-5.00;99.90
39079;DHT22;24829;49.208;12.080;2022-12-18T01:03:01;-5.00;99.90
39079;DHT22;24829;49.208;12.080;2022-12-18T01:05:27;-5.00;99.90
39079;DHT22;24829;49.208;12.080;2022-12-18T01:07:52;-5.00;99.90
39079;DHT22;24829;49.208;12.080;2022-12-18T01:10:18;-5.00;99.90
39079;DHT22;24829;49.208;12.080;2022-12-18T01:12:44;-5.00;99.90
39079;DHT22;24829;49.208;12.080;2022-12-18T01:15:10;-5.20;99.90
39079;DHT22;24829;49.208;12.080;2022-12-18T01:17:37;-5.30;99.90
39079;DHT22;24829;49.208;12.080;2022-12-18T01:20:03;-5.40;99.90
39079;DHT22;24829;49.208;12.080;2022-12-18T01:22:29;-5.60;99.90
39079;DHT22;24829;49.208;12.080;2022-12-18T01:24:54;-5.60;99.90
39079;DHT22;24829;49.208;12.080;2022-12-18T01:27:20;-5.60;99.90
39079;DHT22;24829;49.208;12.080;2022-12-18T01:29:45;-5.60;99.90
39079;DHT22;24829;49.208;12.080;2022-12-18T01:32:11;-5.60;99.90
39079;DHT22;24829;49.208;12.080;2022-12-18T01:34:37;-5.70;99.90
39079;DHT22;24829;49.208;12.080;2022-12-18T01:37:05;-5.70;99.90
39079;DHT22;24829;49.208;12.080;2022-12-18T01:39:32;-5.70;99.90
39079;DHT22;24829;49.208;12.080;2022-12-18T01:41:58;-5.70;99.90
39079;DHT22;24829;49.208;12.080;2022-12-18T01:47:25;-5.60;99.90
39079;DHT22;24829;49.208;12.080;2022-12-18T01:49:51;-5.60;99.90
39079;DHT22;24829;49.208;12.080;2022-12-18T01:52:18;-5.60;99.90
39079;DHT22;24829;49.208;12.080;2022-12-18T01:54:44;-5.70;99.90
39079;DHT22;24829;49.208;12.080;2022-12-18T01:57:10;-5.70;99.90
39079;DHT22;24829;49.208;12.080;2022-12-18T01:59:36;-5.80;99.90
39079;DHT22;24829;49.208;12.080;2022-12-18T02:02:03;-5.80;99.90
39079;DHT22;24829;49.208;12.080;2022-12-18T02:04:28;-5.70;99.90
39079;DHT22;24829;49.208;12.080;2022-12-18T02:13:20;-5.70;99.90
39079;DHT22;24829;49.208;12.080;2022-12-18T02:18:30;-5.60;99.90
39079;DHT22;24829;49.208;12.080;2022-12-18T02:21:19;-5.50;99.90
39079;DHT22;24829;49.208;12.080;2022-12-18T02:26:50;-5.60;99.90
39079;DHT22;24829;49.208;12.080;2022-12-18T02:29:20;-5.80;99.90
39079;DHT22;24829;49.208;12.080;2022-12-18T02:31:51;-5.80;99.90
39079;DHT22;24829;49.208;12.080;2022-12-18T02:34:18;-5.70;99.90
39079;DHT22;24829;49.208;12.080;2022-12-18T02:36:46;-5.80;99.90
39079;DHT22;24829;49.208;12.080;2022-12-18T02:39:13;-5.70;99.90
39079;DHT22;24829;49.208;12.080;2022-12-18T02:41:40;-5.70;99.90
39079;DHT22;24829;49.208;12.080;2022-12-18T02:44:11;-5.60;99.90
39079;DHT22;24829;49.208;12.080;2022-12-18T02:46:41;-5.60;99.90
39079;DHT22;24829;49.208;12.080;2022-12-18T02:49:17;-5.60;99.90
39079;DHT22;24829;49.208;12.080;2022-12-18T02:51:57;-5.60;99.90
39079;DHT22;24829;49.208;12.080;2022-12-18T02:54:37;-5.60;99.90
39079;DHT22;24829;49.208;12.080;2022-12-18T02:57:34;-5.60;99.90
39079;DHT22;24829;49.208;12.080;2022-12-18T03:00:10;-5.60;99.90
39079;DHT22;24829;49.208;12.080;2022-12-18T03:02:45;-5.60;99.90
39079;DHT22;24829;49.208;12.080;2022-12-18T03:05:38;-5.60;99.90
39079;DHT22;24829;49.208;12.080;2022-12-18T03:08:08;-5.50;99.90
39079;DHT22;24829;49.208;12.080;2022-12-18T03:10:40;-5.60;99.90
39079;DHT22;24829;49.208;12.080;2022-12-18T03:13:15;-5.60;99.90
39079;DHT22;24829;49.208;12.080;2022-12-18T03:15:44;-5.60;99.90
39079;DHT22;24829;49.208;12.080;2022-12-18T03:18:12;-5.60;99.90
39079;DHT22;24829;49.208;12.080;2022-12-18T03:20:38;-5.50;99.90
39079;DHT22;24829;49.208;12.080;2022-12-18T03:23:09;-5.40;99.90
39079;DHT22;24829;49.208;12.080;2022-12-18T03:25:37;-5.40;99.90
39079;DHT22;24829;49.208;12.080;2022-12-18T03:28:03;-5.40;99.90
39079;DHT22;24829;49.208;12.080;2022-12-18T03:30:30;-5.40;99.90
39079;DHT22;24829;49.208;12.080;2022-12-18T03:33:17;-5.40;99.90
39079;DHT22;24829;49.208;12.080;2022-12-18T03:35:44;-5.40;99.90
39079;DHT22;24829;49.208;12.080;2022-12-18T03:38:10;-5.20;99.90
39079;DHT22;24829;49.208;12.080;2022-12-18T03:43:11;-5.20;99.90
39079;DHT22;24829;49.208;12.080;2022-12-18T03:45:41;-5.20;99.90
39079;DHT22;24829;49.208;12.080;2022-12-18T03:56:05;-5.10;99.90
39079;DHT22;24829;49.208;12.080;2022-12-18T03:58:31;-5.10;99.90
39079;DHT22;24829;49.208;12.080;2022-12-18T04:00:59;-5.10;99.90
39079;DHT22;24829;49.208;12.080;2022-12-18T04:03:26;-5.10;99.90
39079;DHT22;24829;49.208;12.080;2022-12-18T04:05:54;-5.10;99.90
39079;DHT22;24829;49.208;12.080;2022-12-18T04:08:20;-5.10;99.90
39079;DHT22;24829;49.208;12.080;2022-12-18T04:10:46;-5.10;99.90
39079;DHT22;24829;49.208;12.080;2022-12-18T04:13:11;-5.10;99.90
39079;DHT22;24829;49.208;12.080;2022-12-18T04:15:37;-5.20;99.90
39079;DHT22;24829;49.208;12.080;2022-12-18T04:18:03;-5.20;99.90
39079;DHT22;24829;49.208;12.080;2022-12-18T04:20:28;-5.20;99.90
39079;DHT22;24829;49.208;12.080;2022-12-18T04:22:54;-5.30;99.90
39079;DHT22;24829;49.208;12.080;2022-12-18T04:25:19;-5.20;99.90
39079;DHT22;24829;49.208;12.080;2022-12-18T04:27:45;-5.20;99.90
39079;DHT22;24829;49.208;12.080;2022-12-18T04:30:10;-5.20;99.90
39079;DHT22;24829;49.208;12.080;2022-12-18T04:32:36;-5.20;99.90
39079;DHT22;24829;49.208;12.080;2022-12-18T04:35:02;-5.30;99.90
39079;DHT22;24829;49.208;12.080;2022-12-18T04:37:29;-5.30;99.90
39079;DHT22;24829;49.208;12.080;2022-12-18T04:39:54;-5.30;99.90
39079;DHT22;24829;49.208;12.080;2022-12-18T04:42:20;-5.20;99.90
39079;DHT22;24829;49.208;12.080;2022-12-18T04:44:45;-5.20;99.90
39079;DHT22;24829;49.208;12.080;2022-12-18T04:47:11;-5.10;99.90
39079;DHT22;24829;49.208;12.080;2022-12-18T04:49:36;-5.10;99.90
39079;DHT22;24829;49.208;12.080;2022-12-18T04:52:02;-5.10;99.90
39079;DHT22;24829;49.208;12.080;2022-12-18T04:54:27;-5.10;99.90
39079;DHT22;24829;49.208;12.080;2022-12-18T04:56:53;-5.10;99.90
39079;DHT22;24829;49.208;12.080;2022-12-18T04:59:18;-5.10;99.90
39079;DHT22;24829;49.208;12.080;2022-12-18T05:01:44;-5.10;99.90
39079;DHT22;24829;49.208;12.080;2022-12-18T05:04:09;-5.10;99.90
39079;DHT22;24829;49.208;12.080;2022-12-18T05:06:34;-5.10;99.90
39079;DHT22;24829;49.208;12.080;2022-12-18T05:09:00;-5.20;99.90
39079;DHT22;24829;49.208;12.080;2022-12-18T05:11:26;-5.20;99.90
39079;DHT22;24829;49.208;12.080;2022-12-18T05:13:51;-5.30;99.90
39079;DHT22;24829;49.208;12.080;2022-12-18T05:16:16;-5.40;99.90
39079;DHT22;24829;49.208;12.080;2022-12-18T05:18:42;-5.50;99.90
39079;DHT22;24829;49.208;12.080;2022-12-18T05:21:07;-5.50;99.90
39079;DHT22;24829;49.208;12.080;2022-12-18T05:23:33;-5.60;99.90
39079;DHT22;24829;49.208;12.080;2022-12-18T05:25:59;-5.60;99.90
39079;DHT22;24829;49.208;12.080;2022-12-18T05:28:26;-5.70;99.90
39079;DHT22;24829;49.208;12.080;2022-12-18T05:30:52;-5.60;99.90
39079;DHT22;24829;49.208;12.080;2022-12-18T05:33:18;-5.70;99.90
39079;DHT22;24829;49.208;12.080;2022-12-18T05:35:44;-5.60;99.90
39079;DHT22;24829;49.208;12.080;2022-12-18T05:38:10;-5.70;99.90
39079;DHT22;24829;49.208;12.080;2022-12-18T05:40:35;-5.70;99.90
39079;DHT22;24829;49.208;12.080;2022-12-18T05:43:02;-5.60;99.90
39079;DHT22;24829;49.208;12.080;2022-12-18T05:45:27;-5.60;99.90
39079;DHT22;24829;49.208;12.080;2022-12-18T05:47:53;-5.50;99.90
39079;DHT22;24829;49.208;12.080;2022-12-18T05:50:18;-5.40;99.90
39079;DHT22;24829;49.208;12.080;2022-12-18T05:52:43;-5.30;99.90
39079;DHT22;24829;49.208;12.080;2022-12-18T05:55:09;-5.40;99.90
39079;DHT22;24829;49.208;12.080;2022-12-18T05:57:34;-5.30;99.90
39079;DHT22;24829;49.208;12.080;2022-12-18T06:00:00;-5.30;99.90
39079;DHT22;24829;49.208;12.080;2022-12-18T06:02:25;-5.20;99.90
39079;DHT22;24829;49.208;12.080;2022-12-18T06:04:51;-5.20;99.90
39079;DHT22;24829;49.208;12.080;2022-12-18T06:07:16;-5.30;99.90
39079;DHT22;24829;49.208;12.080;2022-12-18T06:09:42;-5.30;99.90
39079;DHT22;24829;49.208;12.080;2022-12-18T06:12:08;-5.40;99.90
39079;DHT22;24829;49.208;12.080;2022-12-18T06:14:33;-5.40;99.90
39079;DHT22;24829;49.208;12.080;2022-12-18T06:16:59;-5.40;99.90
39079;DHT22;24829;49.208;12.080;2022-12-18T06:19:24;-5.40;99.90
39079;DHT22;24829;49.208;12.080;2022-12-18T06:21:50;-5.40;99.90
39079;DHT22;24829;49.208;12.080;2022-12-18T06:24:15;-5.40;99.90
39079;DHT22;24829;49.208;12.080;2022-12-18T06:26:41;-5.40;99.90
39079;DHT22;24829;49.208;12.080;2022-12-18T06:29:06;-5.40;99.90
39079;DHT22;24829;49.208;12.080;2022-12-18T06:31:32;-5.40;99.90
39079;DHT22;24829;49.208;12.080;2022-12-18T06:33:57;-5.30;99.90
39079;DHT22;24829;49.208;12.080;2022-12-18T06:36:23;-5.40;99.90
39079;DHT22;24829;49.208;12.080;2022-12-18T06:38:48;-5.30;99.90
39079;DHT22;24829;49.208;12.080;2022-12-18T06:41:15;-5.20;99.90
39079;DHT22;24829;49.208;12.080;2022-12-18T06:43:41;-5.20;99.90
39079;DHT22;24829;49.208;12.080;2022-12-18T06:46:07;-5.10;99.90
39079;DHT22;24829;49.208;12.080;2022-12-18T06:48:32;-5.10;99.90
39079;DHT22;24829;49.208;12.080;2022-12-18T06:50:58;-5.10;99.90
39079;DHT22;24829;49.208;12.080;2022-12-18T06:53:23;-5.20;99.90
39079;DHT22;24829;49.208;12.080;2022-12-18T06:55:49;-5.10;99.90
39079;DHT22;24829;49.208;12.080;2022-12-18T06:58:14;-5.20;99.90
39079;DHT22;24829;49.208;12.080;2022-12-18T07:00:40;-5.20;99.90
39079;DHT22;24829;49.208;12.080;2022-12-18T07:03:05;-5.30;99.90
39079;DHT22;24829;49.208;12.080;2022-12-18T07:05:31;-5.30;99.90
39079;DHT22;24829;49.208;12.080;2022-12-18T07:07:57;-5.30;99.90
39079;DHT22;24829;49.208;12.080;2022-12-18T07:10:22;-5.40;99.90
39079;DHT22;24829;49.208;12.080;2022-12-18T07:12:48;-5.30;99.90
39079;DHT22;24829;49.208;12.080;2022-12-18T07:15:13;-5.20;99.90
39079;DHT22;24829;49.208;12.080;2022-12-18T07:17:39;-5.20;99.90
39079;DHT22;24829;49.208;12.080;2022-12-18T07:20:04;-5.10;99.90
39079;DHT22;24829;49.208;12.080;2022-12-18T07:22:30;-5.10;99.90
39079;DHT22;24829;49.208;12.080;2022-12-18T07:24:55;-5.10;99.90
39079;DHT22;24829;49.208;12.080;2022-12-18T07:27:21;-5.10;99.90
39079;DHT22;24829;49.208;12.080;2022-12-18T07:29:47;-5.20;99.90
39079;DHT22;24829;49.208;12.080;2022-12-18T07:32:12;-5.20;99.90
39079;DHT22;24829;49.208;12.080;2022-12-18T07:34:37;-5.20;99.90
39079;DHT22;24829;49.208;12.080;2022-12-18T07:37:03;-5.20;99.90
39079;DHT22;24829;49.208;12.080;2022-12-18T07:39:28;-5.10;99.90
39079;DHT22;24829;49.208;12.080;2022-12-18T07:41:54;-5.10;99.90
39079;DHT22;24829;49.208;12.080;2022-12-18T07:44:38;-5.10;99.90
39079;DHT22;24829;49.208;12.080;2022-12-18T07:47:04;-5.10;99.90
39079;DHT22;24829;49.208;12.080;2022-12-18T07:49:29;-5.10;99.90
39079;DHT22;24829;49.208;12.080;2022-12-18T07:51:55;-5.00;99.90
39079;DHT22;24829;49.208;12.080;2022-12-18T07:54:21;-4.90;99.90
39079;DHT22;24829;49.208;12.080;2022-12-18T07:56:47;-4.90;99.90
39079;DHT22;24829;49.208;12.080;2022-12-18T07:59:12;-4.90;99.90
39079;DHT22;24829;49.208;12.080;2022-12-18T08:01:38;-4.90;99.90
39079;DHT22;24829;49.208;12.080;2022-12-18T08:04:04;-4.90;99.90
39079;DHT22;24829;49.208;12.080;2022-12-18T08:06:29;-4.80;99.90
39079;DHT22;24829;49.208;12.080;2022-12-18T08:08:55;-4.80;99.90
39079;DHT22;24829;49.208;12.080;2022-12-18T08:11:21;-4.80;99.90
39079;DHT22;24829;49.208;12.080;2022-12-18T08:13:47;-4.80;99.90
39079;DHT22;24829;49.208;12.080;2022-12-18T08:16:12;-4.70;99.90
39079;DHT22;24829;49.208;12.080;2022-12-18T08:18:37;-4.70;99.90
39079;DHT22;24829;49.208;12.080;2022-12-18T08:21:16;-4.70;99.90
39079;DHT22;24829;49.208;12.080;2022-12-18T08:23:43;-4.60;99.90
39079;DHT22;24829;49.208;12.080;2022-12-18T08:26:09;-4.60;99.90
39079;DHT22;24829;49.208;12.080;2022-12-18T08:28:34;-4.60;99.90
39079;DHT22;24829;49.208;12.080;2022-12-18T08:31:00;-4.60;99.90
39079;DHT22;24829;49.208;12.080;2022-12-18T08:33:25;-4.60;99.90
39079;DHT22;24829;49.208;12.080;2022-12-18T08:35:51;-4.60;99.90
39079;DHT22;24829;49.208;12.080;2022-12-18T08:38:17;-4.60;99.90
39079;DHT22;24829;49.208;12.080;2022-12-18T08:40:42;-4.50;99.90
39079;DHT22;24829;49.208;12.080;2022-12-18T08:43:09;-4.50;99.90
39079;DHT22;24829;49.208;12.080;2022-12-18T08:45:53;-4.50;99.90
39079;DHT22;24829;49.208;12.080;2022-12-18T08:48:18;-4.40;99.90
39079;DHT22;24829;49.208;12.080;2022-12-18T08:50:52;-4.40;99.90
39079;DHT22;24829;49.208;12.080;2022-12-18T08:53:18;-4.30;99.90
39079;DHT22;24829;49.208;12.080;2022-12-18T08:55:43;-4.40;99.90
39079;DHT22;24829;49.208;12.080;2022-12-18T08:58:09;-4.40;99.90
39079;DHT22;24829;49.208;12.080;2022-12-18T09:00:34;-4.40;99.90
39079;DHT22;24829;49.208;12.080;2022-12-18T09:03:00;-4.30;99.90
39079;DHT22;24829;49.208;12.080;2022-12-18T09:05:27;-4.30;99.90
39079;DHT22;24829;49.208;12.080;2022-12-18T09:07:52;-4.30;99.90
39079;DHT22;24829;49.208;12.080;2022-12-18T09:10:18;-4.30;99.90
39079;DHT22;24829;49.208;12.080;2022-12-18T09:12:43;-4.30;99.90
39079;DHT22;24829;49.208;12.080;2022-12-18T09:15:09;-4.30;99.90
39079;DHT22;24829;49.208;12.080;2022-12-18T09:17:34;-4.40;99.90
39079;DHT22;24829;49.208;12.080;2022-12-18T09:20:00;-4.30;99.90
39079;DHT22;24829;49.208;12.080;2022-12-18T09:22:25;-4.30;99.90
39079;DHT22;24829;49.208;12.080;2022-12-18T09:24:50;-4.30;99.90
39079;DHT22;24829;49.208;12.080;2022-12-18T09:27:16;-4.30;99.90
39079;DHT22;24829;49.208;12.080;2022-12-18T09:29:41;-4.20;99.90
39079;DHT22;24829;49.208;12.080;2022-12-18T09:32:07;-4.20;99.90
39079;DHT22;24829;49.208;12.080;2022-12-18T09:34:32;-4.30;99.90
39079;DHT22;24829;49.208;12.080;2022-12-18T09:36:58;-4.20;99.90
39079;DHT22;24829;49.208;12.080;2022-12-18T09:39:23;-4.10;99.90
39079;DHT22;24829;49.208;12.080;2022-12-18T09:41:53;-4.10;99.90
39079;DHT22;24829;49.208;12.080;2022-12-18T09:44:39;-4.10;99.90
39079;DHT22;24829;49.208;12.080;2022-12-18T09:47:13;-4.10;99.90
39079;DHT22;24829;49.208;12.080;2022-12-18T09:49:45;-4.00;99.90
39079;DHT22;24829;49.208;12.080;2022-12-18T09:52:54;-3.90;99.90
39079;DHT22;24829;49.208;12.080;2022-12-18T09:55:23;-3.80;99.90
39079;DHT22;24829;49.208;12.080;2022-12-18T09:57:47;-3.80;99.90
39079;DHT22;24829;49.208;12.080;2022-12-18T10:00:19;-3.70;99.90
39079;DHT22;24829;49.208;12.080;2022-12-18T10:02:45;-3.70;99.90
39079;DHT22;24829;49.208;12.080;2022-12-18T10:05:11;-3.60;99.90
39079;DHT22;24829;49.208;12.080;2022-12-18T10:15:17;-3.30;99.90
39079;DHT22;24829;49.208;12.080;2022-12-18T10:17:51;-3.20;99.90
39079;DHT22;24829;49.208;12.080;2022-12-18T10:22:48;-3.10;99.90
39079;DHT22;24829;49.208;12.080;2022-12-18T10:25:17;-3.10;99.90
39079;DHT22;24829;49.208;12.080;2022-12-18T10:27:43;-3.10;99.90
39079;DHT22;24829;49.208;12.080;2022-12-18T10:30:13;-3.20;99.90
39079;DHT22;24829;49.208;12.080;2022-12-18T10:32:39;-3.20;99.90
39079;DHT22;24829;49.208;12.080;2022-12-18T10:35:04;-3.20;99.90
39079;DHT22;24829;49.208;12.080;2022-12-18T10:37:30;-3.20;99.90
39079;DHT22;24829;49.208;12.080;2022-12-18T10:42:33;-3.00;99.90
39079;DHT22;24829;49.208;12.080;2022-12-18T10:45:17;-3.00;99.90
39079;DHT22;24829;49.208;12.080;2022-12-18T10:47:49;-3.10;99.90
39079;DHT22;24829;49.208;12.080;2022-12-18T10:50:18;-3.10;99.90
39079;DHT22;24829;49.208;12.080;2022-12-18T10:52:44;-3.20;99.90
39079;DHT22;24829;49.208;12.080;2022-12-18T10:55:17;-3.30;99.90
39079;DHT22;24829;49.208;12.080;2022-12-18T10:57:43;-3.30;99.90
39079;DHT22;24829;49.208;12.080;2022-12-18T11:00:26;-3.40;99.90
39079;DHT22;24829;49.208;12.080;2022-12-18T11:02:52;-3.40;99.90
39079;DHT22;24829;49.208;12.080;2022-12-18T11:05:29;-3.40;99.90
39079;DHT22;24829;49.208;12.080;2022-12-18T11:07:55;-3.30;99.90
39079;DHT22;24829;49.208;12.080;2022-12-18T11:10:22;-3.20;99.90
39079;DHT22;24829;49.208;12.080;2022-12-18T11:12:48;-3.20;99.90
39079;DHT22;24829;49.208;12.080;2022-12-18T11:15:26;-3.20;99.90
39079;DHT22;24829;49.208;12.080;2022-12-18T11:17:52;-3.20;99.90
39079;DHT22;24829;49.208;12.080;2022-12-18T11:22:56;-3.10;99.90
39079;DHT22;24829;49.208;12.080;2022-12-18T11:25:22;-3.00;99.90
39079;DHT22;24829;49.208;12.080;2022-12-18T11:27:49;-3.00;99.90
39079;DHT22;24829;49.208;12.080;2022-12-18T11:30:32;-3.00;99.90
39079;DHT22;24829;49.208;12.080;2022-12-18T11:33:03;-3.00;99.90
39079;DHT22;24829;49.208;12.080;2022-12-18T11:37:59;-2.90;99.90
39079;DHT22;24829;49.208;12.080;2022-12-18T11:40:33;-2.80;99.90
39079;DHT22;24829;49.208;12.080;2022-12-18T11:45:34;-2.60;99.90
39079;DHT22;24829;49.208;12.080;2022-12-18T11:48:06;-2.60;99.90
39079;DHT22;24829;49.208;12.080;2022-12-18T11:53:02;-2.70;99.90
39079;DHT22;24829;49.208;12.080;2022-12-18T11:55:36;-2.90;99.90
39079;DHT22;24829;49.208;12.080;2022-12-18T11:58:21;-2.90;99.90
39079;DHT22;24829;49.208;12.080;2022-12-18T12:01:05;-2.90;99.90
39079;DHT22;24829;49.208;12.080;2022-12-18T12:03:47;-2.90;99.90
39079;DHT22;24829;49.208;12.080;2022-12-18T12:11:24;-3.20;99.90
39079;DHT22;24829;49.208;12.080;2022-12-18T12:14:08;-3.30;99.90
39079;DHT22;24829;49.208;12.080;2022-12-18T12:16:39;-3.50;99.90
39079;DHT22;24829;49.208;12.080;2022-12-18T12:19:15;-3.50;99.90
39079;DHT22;24829;49.208;12.080;2022-12-18T12:21:43;-3.50;99.90
39079;DHT22;24829;49.208;12.080;2022-12-18T12:29:39;-3.40;99.90
39079;DHT22;24829;49.208;12.080;2022-12-18T12:32:14;-3.30;99.90
39079;DHT22;24829;49.208;12.080;2022-12-18T12:39:50;-3.10;99.90
39079;DHT22;24829;49.208;12.080;2022-12-18T12:42:31;-3.10;99.90
39079;DHT22;24829;49.208;12.080;2022-12-18T12:45:21;-3.10;99.90
39079;DHT22;24829;49.208;12.080;2022-12-18T12:47:47;-3.00;99.90
39079;DHT22;24829;49.208;12.080;2022-12-18T12:50:15;-3.00;99.90
39079;DHT22;24829;49.208;12.080;2022-12-18T12:52:45;-2.90;99.90
39079;DHT22;24829;49.208;12.080;2022-12-18T12:55:14;-2.90;99.90
39079;DHT22;24829;49.208;12.080;2022-12-18T12:57:41;-2.90;99.90
39079;DHT22;24829;49.208;12.080;2022-12-18T13:00:14;-2.80;99.90
39079;DHT22;24829;49.208;12.080;2022-12-18T13:07:41;-2.80;99.90
39079;DHT22;24829;49.208;12.080;2022-12-18T13:13:02;-2.90;99.90
39079;DHT22;24829;49.208;12.080;2022-12-18T13:15:38;-3.00;99.90
39079;DHT22;24829;49.208;12.080;2022-12-18T13:21:18;-2.90;99.90
39079;DHT22;24829;49.208;12.080;2022-12-18T13:25:51;-2.80;99.90
39079;DHT22;24829;49.208;12.080;2022-12-18T13:30:47;-2.90;99.90
39079;DHT22;24829;49.208;12.080;2022-12-18T13:40:57;-2.80;99.90
39079;DHT22;24829;49.208;12.080;2022-12-18T13:43:23;-2.80;99.90
39079;DHT22;24829;49.208;12.080;2022-12-18T13:48:36;-2.80;99.90
39079;DHT22;24829;49.208;12.080;2022-12-18T13:51:06;-2.90;99.90
39079;DHT22;24829;49.208;12.080;2022-12-18T13:53:39;-3.00;99.90
39079;DHT22;24829;49.208;12.080;2022-12-18T13:56:07;-3.00;99.90
39079;DHT22;24829;49.208;12.080;2022-12-18T13:58:33;-3.00;99.90
39079;DHT22;24829;49.208;12.080;2022-12-18T14:00:58;-3.00;99.90
39079;DHT22;24829;49.208;12.080;2022-12-18T14:03:28;-3.10;99.90
39079;DHT22;24829;49.208;12.080;2022-12-18T14:05:55;-3.00;99.90
39079;DHT22;24829;49.208;12.080;2022-12-18T14:08:22;-3.10;99.90
39079;DHT22;24829;49.208;12.080;2022-12-18T14:10:48;-3.10;99.90
39079;DHT22;24829;49.208;12.080;2022-12-18T14:13:15;-3.10;99.90
39079;DHT22;24829;49.208;12.080;2022-12-18T14:15:43;-3.10;99.90
39079;DHT22;24829;49.208;12.080;2022-12-18T14:20:43;-3.20;99.90
39079;DHT22;24829;49.208;12.080;2022-12-18T14:23:27;-3.30;99.90
39079;DHT22;24829;49.208;12.080;2022-12-18T14:25:53;-3.40;99.90
39079;DHT22;24829;49.208;12.080;2022-12-18T14:28:18;-3.40;99.90
39079;DHT22;24829;49.208;12.080;2022-12-18T14:30:45;-3.50;99.90
39079;DHT22;24829;49.208;12.080;2022-12-18T14:35:37;-3.60;99.90
39079;DHT22;24829;49.208;12.080;2022-12-18T14:38:10;-3.70;99.90
39079;DHT22;24829;49.208;12.080;2022-12-18T14:40:36;-3.70;99.90
39079;DHT22;24829;49.208;12.080;2022-12-18T14:43:02;-3.80;99.90
39079;DHT22;24829;49.208;12.080;2022-12-18T14:45:37;-3.90;99.90
39079;DHT22;24829;49.208;12.080;2022-12-18T14:48:07;-4.00;99.90
39079;DHT22;24829;49.208;12.080;2022-12-18T14:50:33;-4.10;99.90
39079;DHT22;24829;49.208;12.080;2022-12-18T14:52:58;-4.20;99.90
39079;DHT22;24829;49.208;12.080;2022-12-18T14:55:24;-4.30;99.90
39079;DHT22;24829;49.208;12.080;2022-12-18T14:57:50;-4.30;99.90
39079;DHT22;24829;49.208;12.080;2022-12-18T15:00:20;-4.40;99.90
39079;DHT22;24829;49.208;12.080;2022-12-18T15:02:46;-4.50;99.90
39079;DHT22;24829;49.208;12.080;2022-12-18T15:07:49;-4.60;99.90
39079;DHT22;24829;49.208;12.080;2022-12-18T15:10:33;-4.60;99.90
39079;DHT22;24829;49.208;12.080;2022-12-18T15:20:30;-4.70;99.90
39079;DHT22;24829;49.208;12.080;2022-12-18T15:22:56;-4.80;99.90
39079;DHT22;24829;49.208;12.080;2022-12-18T15:25:43;-4.80;99.90
39079;DHT22;24829;49.208;12.080;2022-12-18T15:28:24;-4.90;99.90
39079;DHT22;24829;49.208;12.080;2022-12-18T15:33:35;-5.00;99.90
39079;DHT22;24829;49.208;12.080;2022-12-18T15:36:02;-5.00;99.90
39079;DHT22;24829;49.208;12.080;2022-12-18T15:38:28;-5.00;99.90
39079;DHT22;24829;49.208;12.080;2022-12-18T15:40:54;-4.90;99.90
39079;DHT22;24829;49.208;12.080;2022-12-18T15:43:23;-5.00;99.90
39079;DHT22;24829;49.208;12.080;2022-12-18T15:48:31;-5.20;99.90
39079;DHT22;24829;49.208;12.080;2022-12-18T15:50:57;-5.20;99.90
39079;DHT22;24829;49.208;12.080;2022-12-18T15:53:24;-5.30;99.90
39079;DHT22;24829;49.208;12.080;2022-12-18T15:55:50;-5.30;99.90
39079;DHT22;24829;49.208;12.080;2022-12-18T15:58:34;-5.40;99.90
39079;DHT22;24829;49.208;12.080;2022-12-18T16:01:00;-5.40;99.90
39079;DHT22;24829;49.208;12.080;2022-12-18T16:03:26;-5.40;99.90
39079;DHT22;24829;49.208;12.080;2022-12-18T16:05:52;-5.40;99.90
39079;DHT22;24829;49.208;12.080;2022-12-18T16:08:18;-5.50;99.90
39079;DHT22;24829;49.208;12.080;2022-12-18T16:10:43;-5.50;99.90
39079;DHT22;24829;49.208;12.080;2022-12-18T16:13:10;-5.50;99.90
39079;DHT22;24829;49.208;12.080;2022-12-18T16:15:35;-5.60;99.90
39079;DHT22;24829;49.208;12.080;2022-12-18T16:18:01;-5.60;99.90
39079;DHT22;24829;49.208;12.080;2022-12-18T16:20:26;-5.60;99.90
39079;DHT22;24829;49.208;12.080;2022-12-18T16:22:52;-5.60;99.90
39079;DHT22;24829;49.208;12.080;2022-12-18T16:27:43;-5.70;99.90
39079;DHT22;24829;49.208;12.080;2022-12-18T16:30:16;-5.80;99.90
39079;DHT22;24829;49.208;12.080;2022-12-18T16:32:42;-5.80;99.90
39079;DHT22;24829;49.208;12.080;2022-12-18T16:35:11;-5.90;99.90
39079;DHT22;24829;49.208;12.080;2022-12-18T16:37:37;-5.90;99.90
39079;DHT22;24829;49.208;12.080;2022-12-18T16:40:02;-5.90;99.90
39079;DHT22;24829;49.208;12.080;2022-12-18T16:42:28;-6.00;99.90
39079;DHT22;24829;49.208;12.080;2022-12-18T16:44:53;-6.00;99.90
39079;DHT22;24829;49.208;12.080;2022-12-18T16:47:19;-6.00;99.90
39079;DHT22;24829;49.208;12.080;2022-12-18T16:49:44;-6.00;99.90
39079;DHT22;24829;49.208;12.080;2022-12-18T16:52:10;-6.00;99.90
39079;DHT22;24829;49.208;12.080;2022-12-18T16:54:36;-6.10;99.90
39079;DHT22;24829;49.208;12.080;2022-12-18T16:57:01;-6.10;99.90
39079;DHT22;24829;49.208;12.080;2022-12-18T16:59:27;-6.10;99.90
39079;DHT22;24829;49.208;12.080;2022-12-18T17:01:53;-6.10;99.90
39079;DHT22;24829;49.208;12.080;2022-12-18T17:04:19;-6.10;99.90
39079;DHT22;24829;49.208;12.080;2022-12-18T17:06:45;-6.20;99.90
39079;DHT22;24829;49.208;12.080;2022-12-18T17:09:16;-6.20;99.90
39079;DHT22;24829;49.208;12.080;2022-12-18T17:11:42;-6.20;99.90
39079;DHT22;24829;49.208;12.080;2022-12-18T17:14:08;-6.30;99.90